createdAt,value
2018-02-10T00:01:51.232Z,101426.87
2018-02-10T00:04:19.584Z,101424.16
2018-02-10T00:06:47.924Z,101426.11
2018-02-10T00:09:17.024Z,101431.67
2018-02-10T00:11:46.143Z,101423.19
2018-02-10T00:14:15.208Z,101423.44
2018-02-10T00:16:43.542Z,101429.02
2018-02-10T00:19:12.686Z,101426.73
2018-02-10T00:21:41.009Z,101421.98
2018-02-10T00:24:09.368Z,101426.05
2018-02-10T00:26:38.478Z,101429.45
2018-02-10T00:29:07.580Z,101428.55
2018-02-10T00:31:35.928Z,101430.82
2018-02-10T00:34:04.284Z,101434.50
2018-02-10T00:36:32.645Z,101432.52
2018-02-10T00:39:01.833Z,101429.45
2018-02-10T00:41:30.156Z,101430.97
2018-02-10T00:43:58.513Z,101431.66
2018-02-10T00:46:26.820Z,101433.13
2018-02-10T00:48:55.114Z,101439.38
2018-02-10T00:51:23.422Z,101438.05
2018-02-10T00:53:52.526Z,101435.48
2018-02-10T00:56:21.658Z,101439.86
2018-02-10T00:58:49.954Z,101439.59
2018-02-10T01:01:18.295Z,101440.94
2018-02-10T01:03:47.362Z,101443.55
2018-02-10T01:06:15.701Z,101443.98
2018-02-10T01:08:44.046Z,101447.75
2018-02-10T01:11:13.114Z,101445.52
2018-02-10T01:13:41.456Z,101448.30
2018-02-10T01:16:09.762Z,101450.23
2018-02-10T01:18:38.072Z,101455.80
2018-02-10T01:21:06.380Z,101463.23
2018-02-10T01:23:35.454Z,101459.48
2018-02-10T01:26:03.766Z,101464.84
2018-02-10T01:28:32.837Z,101472.22
2018-02-10T01:31:01.167Z,101460.75
2018-02-10T01:33:29.500Z,101477.11
2018-02-10T01:35:57.857Z,101478.84
2018-02-10T01:38:26.450Z,101486.42
2018-02-10T01:40:54.967Z,101482.66
2018-02-10T01:43:23.351Z,101489.67
2018-02-10T01:45:51.671Z,101486.83
2018-02-10T01:48:19.993Z,101486.91
2018-02-10T01:50:48.317Z,101486.69
2018-02-10T01:53:17.391Z,101486.62
2018-02-10T01:55:45.698Z,101489.83
2018-02-10T01:58:14.030Z,101487.53
2018-02-10T02:00:42.361Z,101493.93
2018-02-10T02:03:11.430Z,101498.34
2018-02-10T02:05:39.793Z,101491.52
2018-02-10T02:08:08.142Z,101500.76
2018-02-10T02:10:37.224Z,101497.63
2018-02-10T02:13:07.155Z,101504.58
2018-02-10T02:15:35.474Z,101506.67
2018-02-10T02:18:03.820Z,101507.58
2018-02-10T02:20:32.146Z,101513.29
2018-02-10T02:23:00.460Z,101510.86
2018-02-10T02:25:29.590Z,101507.45
2018-02-10T02:27:57.900Z,101513.50
2018-02-10T02:30:26.232Z,101511.00
2018-02-10T02:32:55.297Z,101507.38
2018-02-10T02:35:25.120Z,101508.91
2018-02-10T02:37:53.449Z,101512.56
2018-02-10T02:40:21.772Z,101507.03
2018-02-10T02:42:50.076Z,101513.92
2018-02-10T02:45:19.189Z,101509.95
2018-02-10T02:47:47.552Z,101512.38
2018-02-10T02:50:15.881Z,101514.81
2018-02-10T02:52:44.194Z,101516.97
2018-02-10T02:55:12.528Z,101508.97
2018-02-10T02:57:40.829Z,101515.44
2018-02-10T03:00:09.170Z,101516.69
2018-02-10T03:02:37.488Z,101523.16
2018-02-10T03:05:05.836Z,101518.92
2018-02-10T03:07:35.001Z,101510.16
2018-02-10T03:10:03.372Z,101502.77
2018-02-10T03:12:31.703Z,101502.28
2018-02-10T03:15:00.803Z,101503.19
2018-02-10T03:17:29.939Z,101504.30
2018-02-10T03:19:58.261Z,101510.36
2018-02-10T03:22:26.563Z,101521.98
2018-02-10T03:24:54.889Z,101527.21
2018-02-10T03:27:23.209Z,101525.41
2018-02-10T03:29:51.532Z,101524.88
2018-02-10T03:32:20.653Z,101543.29
2018-02-10T03:34:48.994Z,101528.47
2018-02-10T03:37:18.084Z,101522.83
2018-02-10T03:39:46.387Z,101528.59
2018-02-10T03:42:15.631Z,101531.86
2018-02-10T03:44:43.933Z,101530.25
2018-02-10T03:47:12.285Z,101533.00
2018-02-10T03:49:40.617Z,101530.98
2018-02-10T03:52:08.955Z,101536.33
2018-02-10T03:54:37.283Z,101543.16
2018-02-10T03:57:06.410Z,101553.56
2018-02-10T03:59:34.753Z,101543.48
2018-02-10T04:02:03.080Z,101540.06
2018-02-10T04:04:31.411Z,101533.21
2018-02-10T04:06:59.751Z,101543.92
2018-02-10T04:09:28.173Z,101551.51
2018-02-10T04:11:56.591Z,101553.95
2018-02-10T04:14:25.799Z,101556.50
2018-02-10T04:16:54.879Z,101550.09
2018-02-10T04:19:23.208Z,101544.94
2018-02-10T04:21:51.517Z,101557.12
2018-02-10T04:24:19.846Z,101548.91
2018-02-10T04:26:48.991Z,101548.45
2018-02-10T04:29:17.309Z,101541.28
2018-02-10T04:31:45.653Z,101545.24
2018-02-10T04:34:13.955Z,101535.42
2018-02-10T04:36:42.265Z,101536.88
2018-02-10T04:39:11.325Z,101542.47
2018-02-10T04:41:39.696Z,101539.48
2018-02-10T04:44:07.999Z,101538.85
2018-02-10T04:46:36.354Z,101532.87
2018-02-10T04:49:04.709Z,101529.17
2018-02-10T04:51:33.021Z,101534.78
2018-02-10T04:54:02.099Z,101540.58
2018-02-10T04:56:30.499Z,101547.60
2018-02-10T04:58:58.827Z,101547.05
2018-02-10T05:01:27.921Z,101545.72
2018-02-10T05:03:56.273Z,101546.97
2018-02-10T05:06:24.637Z,101546.41
2018-02-10T05:08:52.973Z,101552.61
2018-02-10T05:11:21.295Z,101552.97
2018-02-10T05:13:49.635Z,101562.71
2018-02-10T05:16:19.260Z,101553.45
2018-02-10T05:18:48.331Z,101556.31
2018-02-10T05:21:16.647Z,101560.70
2018-02-10T05:23:45.744Z,101563.76
2018-02-10T05:26:14.823Z,101564.58
2018-02-10T05:28:43.931Z,101558.73
2018-02-10T05:31:13.109Z,101557.42
2018-02-10T05:33:41.419Z,101570.30
2018-02-10T05:36:10.508Z,101579.63
2018-02-10T05:38:38.811Z,101564.59
2018-02-10T05:41:07.183Z,101555.47
2018-02-10T05:43:36.278Z,101559.22
2018-02-10T05:46:06.039Z,101557.41
2018-02-10T05:48:34.365Z,101556.79
2018-02-10T05:51:02.676Z,101551.43
2018-02-10T05:53:31.004Z,101557.55
2018-02-10T05:55:59.340Z,101563.12
2018-02-10T05:58:27.711Z,101565.83
2018-02-10T06:00:56.832Z,101563.61
2018-02-10T06:03:25.880Z,101584.08
2018-02-10T06:05:54.208Z,101582.45
2018-02-10T06:08:22.537Z,101589.20
2018-02-10T06:10:50.853Z,101591.56
2018-02-10T06:13:19.930Z,101583.22
2018-02-10T06:15:48.323Z,101584.95
2018-02-10T06:18:16.675Z,101583.80
2018-02-10T06:20:45.790Z,101583.52
2018-02-10T06:23:14.099Z,101591.80
2018-02-10T06:25:43.315Z,101601.81
2018-02-10T06:28:12.399Z,101606.30
2018-02-10T06:30:41.502Z,101607.94
2018-02-10T06:33:10.603Z,101610.76
2018-02-10T06:35:39.695Z,101610.62
2018-02-10T06:38:08.775Z,101612.63
2018-02-10T06:40:37.104Z,101619.25
2018-02-10T06:43:05.442Z,101608.18
2018-02-10T06:45:33.783Z,101609.43
2018-02-10T06:48:02.119Z,101612.21
2018-02-10T06:50:31.218Z,101623.41
2018-02-10T06:52:59.535Z,101629.44
2018-02-10T06:55:27.854Z,101622.82
2018-02-10T06:57:56.213Z,101626.23
2018-02-10T07:00:25.376Z,101623.30
2018-02-10T07:02:53.689Z,101623.70
2018-02-10T07:05:22.011Z,101613.81
2018-02-10T07:07:50.325Z,101618.62
2018-02-10T07:10:19.449Z,101615.63
2018-02-10T07:12:47.832Z,101622.18
2018-02-10T07:15:16.150Z,101624.88
2018-02-10T07:17:45.263Z,101630.52
2018-02-10T07:20:13.601Z,101629.34
2018-02-10T07:22:41.921Z,101640.41
2018-02-10T07:25:10.265Z,101631.98
2018-02-10T07:27:38.589Z,101639.39
2018-02-10T07:30:06.935Z,101642.88
2018-02-10T07:32:35.259Z,101637.78
2018-02-10T07:35:03.622Z,101645.08
2018-02-10T07:37:31.983Z,101645.81
2018-02-10T07:40:00.365Z,101636.34
2018-02-10T07:42:29.465Z,101639.61
2018-02-10T07:44:57.780Z,101637.16
2018-02-10T07:47:26.092Z,101638.02
2018-02-10T07:49:55.151Z,101644.05
2018-02-10T07:52:24.239Z,101640.91
2018-02-10T07:54:52.561Z,101641.50
2018-02-10T07:57:20.909Z,101641.16
2018-02-10T07:59:49.260Z,101649.75
2018-02-10T08:02:17.606Z,101647.45
2018-02-10T08:04:45.929Z,101641.91
2018-02-10T08:07:14.229Z,101634.79
2018-02-10T08:09:42.563Z,101637.58
2018-02-10T08:12:11.658Z,101641.16
2018-02-10T08:14:40.017Z,101642.36
2018-02-10T08:17:08.385Z,101644.48
2018-02-10T08:19:36.697Z,101645.32
2018-02-10T08:22:05.810Z,101644.29
2018-02-10T08:24:34.955Z,101644.66
2018-02-10T08:27:03.337Z,101645.72
2018-02-10T08:29:31.639Z,101647.66
2018-02-10T08:31:59.943Z,101647.48
2018-02-10T08:34:28.275Z,101646.72
2018-02-10T08:36:56.697Z,101641.91
2018-02-10T08:39:25.040Z,101643.77
2018-02-10T08:41:53.551Z,101641.33
2018-02-10T08:44:21.914Z,101642.51
2018-02-10T08:46:50.218Z,101650.19
2018-02-10T08:49:18.519Z,101654.46
2018-02-10T08:51:46.855Z,101655.02
2018-02-10T08:54:15.173Z,101655.31
2018-02-10T08:56:43.583Z,101661.41
2018-02-10T08:59:12.637Z,101661.09
2018-02-10T09:01:40.969Z,101660.45
2018-02-10T09:04:10.067Z,101655.73
2018-02-10T09:06:39.190Z,101650.53
2018-02-10T09:09:07.494Z,101658.58
2018-02-10T09:11:35.851Z,101645.70
2018-02-10T09:14:04.207Z,101644.08
2018-02-10T09:16:33.281Z,101639.12
2018-02-10T09:19:02.354Z,101636.96
2018-02-10T09:21:30.700Z,101649.23
2018-02-10T09:23:59.062Z,101644.31
2018-02-10T09:26:28.151Z,101644.76
2018-02-10T09:28:57.233Z,101642.00
2018-02-10T09:31:25.554Z,101640.33
2018-02-10T09:33:54.633Z,101631.23
2018-02-10T09:36:22.998Z,101635.42
2018-02-10T09:38:51.338Z,101639.59
2018-02-10T09:41:19.687Z,101643.75
2018-02-10T09:43:48.002Z,101640.45
2018-02-10T09:46:16.312Z,101641.77
2018-02-10T09:48:44.624Z,101639.41
2018-02-10T09:51:12.992Z,101642.19
2018-02-10T09:53:43.067Z,101643.10
2018-02-10T09:56:11.430Z,101645.27
2018-02-10T09:58:40.594Z,101641.61
2018-02-10T10:01:08.905Z,101653.43
2018-02-10T10:03:37.242Z,101642.70
2018-02-10T10:06:05.554Z,101642.94
2018-02-10T10:08:34.264Z,101648.65
2018-02-10T10:11:02.570Z,101651.03
2018-02-10T10:13:30.876Z,101647.75
2018-02-10T10:15:59.226Z,101642.02
2018-02-10T10:18:28.320Z,101640.02
2018-02-10T10:20:57.398Z,101648.58
2018-02-10T10:23:25.728Z,101646.75
2018-02-10T10:25:54.110Z,101641.89
2018-02-10T10:28:22.474Z,101637.47
2018-02-10T10:30:51.573Z,101629.89
2018-02-10T10:33:19.898Z,101631.19
2018-02-10T10:35:48.245Z,101622.16
2018-02-10T10:38:16.562Z,101626.91
2018-02-10T10:40:44.854Z,101616.37
2018-02-10T10:43:13.186Z,101620.91
2018-02-10T10:45:41.523Z,101623.83
2018-02-10T10:48:09.830Z,101629.06
2018-02-10T10:50:38.924Z,101625.41
2018-02-10T10:53:07.258Z,101624.48
2018-02-10T10:55:35.570Z,101623.13
2018-02-10T10:58:03.887Z,101620.58
2018-02-10T11:00:32.966Z,101619.27
2018-02-10T11:03:01.294Z,101617.34
2018-02-10T11:05:29.637Z,101615.38
2018-02-10T11:07:58.770Z,101618.45
2018-02-10T11:10:27.088Z,101624.98
2018-02-10T11:12:55.412Z,101623.77
2018-02-10T11:15:24.498Z,101621.27
2018-02-10T11:17:53.638Z,101618.92
2018-02-10T11:20:22.021Z,101622.45
2018-02-10T11:22:50.380Z,101618.33
2018-02-10T11:25:19.514Z,101618.88
2018-02-10T11:27:47.926Z,101615.21
2018-02-10T11:30:16.249Z,101621.83
2018-02-10T11:32:45.320Z,101618.54
2018-02-10T11:35:13.683Z,101618.95
2018-02-10T11:37:42.776Z,101616.83
2018-02-10T11:40:11.104Z,101608.38
2018-02-10T11:42:39.460Z,101611.58
2018-02-10T11:45:07.762Z,101602.12
2018-02-10T11:47:36.876Z,101605.91
2018-02-10T11:50:05.176Z,101602.27
2018-02-10T11:52:33.488Z,101592.38
2018-02-10T11:55:01.820Z,101597.17
2018-02-10T11:57:30.172Z,101597.73
2018-02-10T11:59:58.509Z,101590.93
2018-02-10T12:02:26.820Z,101577.87
2018-02-10T12:04:55.210Z,101579.58
2018-02-10T12:07:23.586Z,101574.70
2018-02-10T12:09:51.900Z,101570.41
2018-02-10T12:12:21.000Z,101573.09
2018-02-10T12:14:50.126Z,101566.31
2018-02-10T12:17:18.477Z,101573.80
2018-02-10T12:19:46.808Z,101580.81
2018-02-10T12:22:15.150Z,101567.95
2018-02-10T12:24:43.972Z,101570.00
2018-02-10T12:27:12.341Z,101572.58
2018-02-10T12:29:40.668Z,101577.67
2018-02-10T12:32:09.001Z,101566.30
2018-02-10T12:34:37.334Z,101565.43
2018-02-10T12:37:05.688Z,101575.45
2018-02-10T12:39:34.108Z,101581.39
2018-02-10T12:42:03.111Z,101561.34
2018-02-10T12:44:31.430Z,101562.94
2018-02-10T12:47:00.613Z,101553.63
2018-02-10T12:49:32.493Z,101543.52
2018-02-10T12:52:01.580Z,101545.06
2018-02-10T12:54:30.668Z,101541.83
2018-02-10T12:56:59.040Z,101535.81
2018-02-10T12:59:27.376Z,101539.57
2018-02-10T13:01:56.550Z,101535.77
2018-02-10T13:04:25.654Z,101540.20
2018-02-10T13:06:54.716Z,101537.63
2018-02-10T13:09:23.038Z,101520.70
2018-02-10T13:11:51.362Z,101522.55
2018-02-10T13:14:19.800Z,101518.95
2018-02-10T13:16:48.125Z,101522.05
2018-02-10T13:19:16.414Z,101523.05
2018-02-10T13:21:44.737Z,101514.69
2018-02-10T13:24:13.820Z,101511.28
2018-02-10T13:26:42.203Z,101511.61
2018-02-10T13:29:10.551Z,101521.30
2018-02-10T13:31:38.914Z,101510.12
2018-02-10T13:34:07.222Z,101515.45
2018-02-10T13:36:35.539Z,101516.54
2018-02-10T13:39:04.652Z,101519.70
2018-02-10T13:41:33.854Z,101517.61
2018-02-10T13:44:02.948Z,101523.09
2018-02-10T13:46:32.020Z,101518.77
2018-02-10T13:49:01.108Z,101505.95
2018-02-10T13:51:29.386Z,101511.48
2018-02-10T13:53:57.699Z,101510.91
2018-02-10T13:56:26.798Z,101505.14
2018-02-10T13:58:55.118Z,101492.81
2018-02-10T14:01:24.250Z,101499.48
2018-02-10T14:03:52.569Z,101496.07
2018-02-10T14:06:21.658Z,101486.53
2018-02-10T14:08:49.997Z,101494.05
2018-02-10T14:11:18.350Z,101489.22
2018-02-10T14:13:46.738Z,101483.14
2018-02-10T14:16:15.416Z,101476.83
2018-02-10T14:18:44.520Z,101469.43
2018-02-10T14:21:14.254Z,101463.59
2018-02-10T14:23:42.554Z,101470.09
2018-02-10T14:26:10.885Z,101467.41
2018-02-10T14:28:39.217Z,101453.94
2018-02-10T14:31:07.537Z,101449.66
2018-02-10T14:33:36.616Z,101453.55
2018-02-10T14:36:04.915Z,101442.73
2018-02-10T14:38:33.275Z,101439.56
2018-02-10T14:41:01.590Z,101438.56
2018-02-10T14:43:30.739Z,101434.50
2018-02-10T14:45:59.072Z,101439.80
2018-02-10T14:48:28.153Z,101440.27
2018-02-10T14:50:56.505Z,101426.30
2018-02-10T14:53:24.839Z,101420.95
2018-02-10T14:55:53.968Z,101420.09
2018-02-10T14:58:22.287Z,101413.82
2018-02-10T15:00:50.592Z,101409.08
2018-02-10T15:03:40.945Z,101412.43
2018-02-10T15:06:09.521Z,101404.17
2018-02-10T15:08:37.831Z,101408.31
2018-02-10T15:11:06.148Z,101399.84
2018-02-10T15:13:34.570Z,101397.92
2018-02-10T15:16:02.876Z,101399.73
2018-02-10T15:18:31.225Z,101405.66
2018-02-10T15:20:59.542Z,101406.45
2018-02-10T15:23:27.834Z,101397.71
2018-02-10T15:25:56.139Z,101404.56
2018-02-10T15:28:25.217Z,101394.78
2018-02-10T15:31:11.167Z,101392.36
2018-02-10T15:33:56.914Z,101383.30
2018-02-10T15:36:25.263Z,101383.48
2018-02-10T15:38:53.582Z,101370.94
2018-02-10T15:41:21.887Z,101372.92
2018-02-10T15:43:50.189Z,101373.75
2018-02-10T15:46:18.524Z,101376.23
2018-02-10T15:48:46.968Z,101368.67
2018-02-10T15:51:15.338Z,101367.44
2018-02-10T15:53:43.686Z,101353.44
2018-02-10T15:56:11.980Z,101353.02
2018-02-10T15:58:40.293Z,101351.02
2018-02-10T16:01:08.607Z,101342.63
2018-02-10T16:03:36.905Z,101332.88
2018-02-10T16:06:05.223Z,101316.27
2018-02-10T16:08:33.535Z,101316.58
2018-02-10T16:11:02.782Z,101316.91
2018-02-10T16:13:31.105Z,101305.05
2018-02-10T16:15:59.409Z,101312.01
2018-02-10T16:18:28.467Z,101306.78
2018-02-10T16:20:56.770Z,101302.83
2018-02-10T16:23:25.091Z,101307.36
2018-02-10T16:25:53.387Z,101298.76
2018-02-10T16:28:21.755Z,101299.91
2018-02-10T16:30:50.068Z,101293.94
2018-02-10T16:33:18.447Z,101297.01
2018-02-10T16:35:46.755Z,101291.86
2018-02-10T16:38:15.849Z,101280.48
2018-02-10T16:40:44.166Z,101286.31
2018-02-10T16:43:13.247Z,101279.44
2018-02-10T16:45:41.545Z,101271.84
2018-02-10T16:48:10.804Z,101266.06
2018-02-10T16:50:40.091Z,101266.30
2018-02-10T16:53:08.399Z,101263.86
2018-02-10T16:55:36.694Z,101258.89
2018-02-10T16:58:05.019Z,101250.20
2018-02-10T17:00:33.301Z,101243.77
2018-02-10T17:03:01.586Z,101243.11
2018-02-10T17:05:29.891Z,101239.59
2018-02-10T17:07:58.192Z,101232.13
2018-02-10T17:10:26.505Z,101232.90
2018-02-10T17:12:55.563Z,101226.65
2018-02-10T17:15:23.933Z,101225.52
2018-02-10T17:17:52.229Z,101231.36
2018-02-10T17:20:20.545Z,101218.87
2018-02-10T17:22:49.613Z,101217.14
2018-02-10T17:25:17.979Z,101207.90
2018-02-10T17:27:46.295Z,101207.41
2018-02-10T17:30:14.597Z,101210.57
2018-02-10T17:32:43.653Z,101202.19
2018-02-10T17:35:11.977Z,101189.85
2018-02-10T17:37:40.293Z,101191.95
2018-02-10T17:40:08.573Z,101178.22
2018-02-10T17:42:37.650Z,101181.33
2018-02-10T17:45:05.968Z,101179.59
2018-02-10T17:47:34.247Z,101175.47
2018-02-10T17:50:02.622Z,101176.39
2018-02-10T17:52:30.929Z,101176.97
2018-02-10T17:55:00.009Z,101174.75
2018-02-10T17:57:28.465Z,101159.56
2018-02-10T17:59:56.787Z,101161.14
2018-02-10T18:02:25.095Z,101161.06
2018-02-10T18:04:54.179Z,101162.20
2018-02-10T18:07:22.613Z,101149.45
2018-02-10T18:09:50.903Z,101151.29
2018-02-10T18:12:19.214Z,101144.41
2018-02-10T18:14:47.546Z,101145.72
2018-02-10T18:17:15.839Z,101141.38
2018-02-10T18:19:44.189Z,101134.34
2018-02-10T18:22:13.239Z,101137.65
2018-02-10T18:24:41.558Z,101126.69
2018-02-10T18:27:09.833Z,101116.27
2018-02-10T18:29:38.932Z,101120.89
2018-02-10T18:32:07.231Z,101115.27
2018-02-10T18:34:36.307Z,101108.50
2018-02-10T18:37:04.604Z,101094.10
2018-02-10T18:39:32.972Z,101093.42
2018-02-10T18:42:02.132Z,101089.17
2018-02-10T18:44:30.418Z,101086.69
2018-02-10T18:46:58.721Z,101077.66
2018-02-10T18:49:27.036Z,101076.83
2018-02-10T18:51:56.102Z,101076.66
2018-02-10T18:54:24.432Z,101077.98
2018-02-10T18:56:53.531Z,101065.80
2018-02-10T18:59:22.628Z,101063.95
2018-02-10T19:01:51.714Z,101059.28
2018-02-10T19:04:20.040Z,101061.42
2018-02-10T19:06:48.343Z,101055.37
2018-02-10T19:09:16.647Z,101050.06
2018-02-10T19:11:44.949Z,101046.03
2018-02-10T19:14:14.070Z,101040.11
2018-02-10T19:16:42.369Z,101039.12
2018-02-10T19:19:10.694Z,101036.14
2018-02-10T19:21:39.021Z,101028.77
2018-02-10T19:24:07.335Z,101025.62
2018-02-10T19:26:35.630Z,101014.58
2018-02-10T19:29:03.911Z,101012.67
2018-02-10T19:31:32.989Z,100995.05
2018-02-10T19:34:01.304Z,100997.55
2018-02-10T19:36:30.355Z,100989.41
2018-02-10T19:38:58.660Z,100989.44
2018-02-10T19:41:26.959Z,100982.05
2018-02-10T19:43:55.247Z,100983.43
2018-02-10T19:46:24.359Z,100970.77
2018-02-10T19:48:53.421Z,100965.78
2018-02-10T19:51:21.733Z,100962.28
2018-02-10T19:53:50.817Z,100953.94
2018-02-10T19:56:19.131Z,100948.95
2018-02-10T19:58:47.427Z,100949.95
2018-02-10T20:01:15.732Z,100932.33
2018-02-10T20:03:44.013Z,100925.82
2018-02-10T20:06:12.314Z,100918.69
2018-02-10T20:08:40.646Z,100916.20
2018-02-10T20:11:08.929Z,100901.84
2018-02-10T20:13:37.218Z,100901.59
2018-02-10T20:16:05.510Z,100908.53
2018-02-10T20:18:33.821Z,100911.03
2018-02-10T20:21:02.119Z,100908.80
2018-02-10T20:23:30.441Z,100904.31
2018-02-10T20:25:59.448Z,100897.78
2018-02-10T20:28:27.792Z,100898.02
2018-02-10T20:30:56.862Z,100896.94
2018-02-10T20:33:25.950Z,100888.13
2018-02-10T20:35:55.047Z,100882.94
2018-02-10T20:38:23.384Z,100867.16
2018-02-10T20:40:52.456Z,100865.00
2018-02-10T20:43:20.768Z,100848.91
2018-02-10T20:45:49.874Z,100842.30
2018-02-10T20:48:18.251Z,100838.52
2018-02-10T20:50:46.550Z,100838.27
2018-02-10T20:53:14.828Z,100822.67
2018-02-10T20:55:43.200Z,100830.98
2018-02-10T20:58:11.569Z,100823.83
2018-02-10T21:00:40.636Z,100825.19
2018-02-10T21:03:08.931Z,100813.81
2018-02-10T21:05:37.234Z,100821.36
2018-02-10T21:08:06.320Z,100800.65
2018-02-10T21:10:35.409Z,100807.12
2018-02-10T21:13:03.771Z,100787.73
2018-02-10T21:15:32.093Z,100780.61
2018-02-10T21:18:01.171Z,100781.19
2018-02-10T21:20:29.466Z,100777.05
2018-02-10T21:22:58.532Z,100768.64
2018-02-10T21:25:26.846Z,100765.77
2018-02-10T21:27:55.901Z,100775.75
2018-02-10T21:30:24.209Z,100763.52
2018-02-10T21:32:52.509Z,100755.87
2018-02-10T21:35:21.621Z,100749.37
2018-02-10T21:37:50.752Z,100749.59
2018-02-10T21:40:19.047Z,100748.13
2018-02-10T21:42:47.370Z,100744.41
2018-02-10T21:45:16.441Z,100732.64
2018-02-10T21:47:44.755Z,100732.77
2018-02-10T21:50:13.834Z,100717.45
2018-02-10T21:52:43.053Z,100711.33
2018-02-10T21:55:12.124Z,100699.27
2018-02-10T21:57:40.430Z,100681.97
2018-02-10T22:00:08.776Z,100695.09
2018-02-10T22:02:37.083Z,100678.97
2018-02-10T22:05:05.410Z,100670.86
2018-02-10T22:07:33.722Z,100667.39
2018-02-10T22:10:02.078Z,100661.01
2018-02-10T22:12:30.382Z,100644.20
2018-02-10T22:14:58.682Z,100645.68
2018-02-10T22:17:26.974Z,100643.44
2018-02-10T22:19:55.563Z,100636.49
2018-02-10T22:22:23.866Z,100629.87
2018-02-10T22:24:52.929Z,100614.16
2018-02-10T22:27:21.217Z,100610.16
2018-02-10T22:29:49.560Z,100609.42
2018-02-10T22:32:18.531Z,100601.97
2018-02-10T22:34:47.582Z,100587.81
2018-02-10T22:37:15.884Z,100581.36
2018-02-10T22:39:44.172Z,100572.46
2018-02-10T22:42:13.259Z,100571.45
2018-02-10T22:44:41.560Z,100557.08
2018-02-10T22:47:10.626Z,100540.10
2018-02-10T22:49:38.936Z,100556.91
2018-02-10T22:52:07.996Z,100534.86
2018-02-10T22:54:36.322Z,100542.91
2018-02-10T22:57:05.386Z,100536.46
2018-02-10T22:59:33.666Z,100530.92
2018-02-10T23:02:01.980Z,100530.23
2018-02-10T23:04:31.057Z,100535.72
2018-02-10T23:06:59.380Z,100513.88
2018-02-10T23:09:27.688Z,100497.82
2018-02-10T23:11:56.028Z,100493.06
2018-02-10T23:14:25.111Z,100488.00
2018-02-10T23:16:53.406Z,100468.06
2018-02-10T23:19:22.501Z,100470.38
2018-02-10T23:21:52.392Z,100469.02
2018-02-10T23:24:21.458Z,100452.91
2018-02-10T23:26:50.431Z,100442.58
2018-02-10T23:29:19.492Z,100440.54
2018-02-10T23:31:47.787Z,100432.69
2018-02-10T23:34:16.074Z,100424.55
2018-02-10T23:36:45.228Z,100423.16
2018-02-10T23:39:13.547Z,100391.13
2018-02-10T23:41:42.840Z,100396.34
2018-02-10T23:44:11.148Z,100388.90
2018-02-10T23:46:40.209Z,100386.04
2018-02-10T23:49:08.522Z,100383.55
2018-02-10T23:51:36.816Z,100378.98
2018-02-10T23:54:05.881Z,100375.36
2018-02-10T23:56:34.242Z,100364.55
2018-02-10T23:59:02.566Z,100381.07
